sensor_id;sensor_type;location;lat;lon;timestamp;P1;durP1;ratioP1;P2;durP2;ratioP2
10641;SDS011;5369;49.586;8.646;2022-08-30T00:00:43;4.17;;;2.33;;
10641;SDS011;5369;49.586;8.646;2022-08-30T00:03:38;3.90;;;2.37;;
10641;SDS011;5369;49.586;8.646;2022-08-30T00:06:05;5.33;;;2.57;;
10641;SDS011;5369;49.586;8.646;2022-08-30T00:08:32;3.40;;;2.40;;
10641;SDS011;5369;49.586;8.646;2022-08-30T00:10:59;5.00;;;2.20;;
10641;SDS011;5369;49.586;8.646;2022-08-30T00:13:25;5.73;;;2.77;;
10641;SDS011;5369;49.586;8.646;2022-08-30T00:15:52;3.97;;;2.17;;
10641;SDS011;5369;49.586;8.646;2022-08-30T00:18:18;3.17;;;2.07;;
10641;SDS011;5369;49.586;8.646;2022-08-30T00:20:45;6.80;;;2.50;;
10641;SDS011;5369;49.586;8.646;2022-08-30T00:23:12;2.73;;;2.10;;
10641;SDS011;5369;49.586;8.646;2022-08-30T00:25:38;3.63;;;2.13;;
10641;SDS011;5369;49.586;8.646;2022-08-30T00:28:05;3.90;;;2.20;;
10641;SDS011;5369;49.586;8.646;2022-08-30T00:30:31;3.80;;;2.40;;
10641;SDS011;5369;49.586;8.646;2022-08-30T00:32:57;2.30;;;2.07;;
10641;SDS011;5369;49.586;8.646;2022-08-30T00:35:23;4.37;;;2.07;;
10641;SDS011;5369;49.586;8.646;2022-08-30T00:37:50;3.73;;;2.10;;
10641;SDS011;5369;49.586;8.646;2022-08-30T00:40:17;4.17;;;2.20;;
10641;SDS011;5369;49.586;8.646;2022-08-30T00:42:44;2.90;;;2.10;;
10641;SDS011;5369;49.586;8.646;2022-08-30T00:45:13;4.83;;;2.20;;
10641;SDS011;5369;49.586;8.646;2022-08-30T00:47:39;4.87;;;2.50;;
10641;SDS011;5369;49.586;8.646;2022-08-30T00:50:06;4.57;;;2.07;;
10641;SDS011;5369;49.586;8.646;2022-08-30T00:52:32;4.63;;;2.20;;
10641;SDS011;5369;49.586;8.646;2022-08-30T00:54:59;2.70;;;2.07;;
10641;SDS011;5369;49.586;8.646;2022-08-30T00:57:26;6.47;;;2.30;;
10641;SDS011;5369;49.586;8.646;2022-08-30T00:59:53;4.47;;;2.40;;
10641;SDS011;5369;49.586;8.646;2022-08-30T01:02:20;4.40;;;2.20;;
10641;SDS011;5369;49.586;8.646;2022-08-30T01:04:48;3.97;;;2.20;;
10641;SDS011;5369;49.586;8.646;2022-08-30T01:07:16;3.73;;;2.17;;
10641;SDS011;5369;49.586;8.646;2022-08-30T01:09:42;3.63;;;2.40;;
10641;SDS011;5369;49.586;8.646;2022-08-30T01:12:09;4.27;;;2.50;;
10641;SDS011;5369;49.586;8.646;2022-08-30T01:14:35;2.47;;;2.20;;
10641;SDS011;5369;49.586;8.646;2022-08-30T01:17:02;3.80;;;2.30;;
10641;SDS011;5369;49.586;8.646;2022-08-30T01:19:32;3.77;;;2.20;;
10641;SDS011;5369;49.586;8.646;2022-08-30T01:22:03;2.93;;;2.40;;
10641;SDS011;5369;49.586;8.646;2022-08-30T01:24:30;3.07;;;2.30;;
10641;SDS011;5369;49.586;8.646;2022-08-30T01:26:57;3.30;;;2.23;;
10641;SDS011;5369;49.586;8.646;2022-08-30T01:29:23;3.77;;;2.30;;
10641;SDS011;5369;49.586;8.646;2022-08-30T01:31:50;2.60;;;2.07;;
10641;SDS011;5369;49.586;8.646;2022-08-30T01:34:17;3.53;;;2.10;;
10641;SDS011;5369;49.586;8.646;2022-08-30T01:36:43;4.47;;;2.33;;
10641;SDS011;5369;49.586;8.646;2022-08-30T01:39:11;4.07;;;2.30;;
10641;SDS011;5369;49.586;8.646;2022-08-30T01:41:38;5.17;;;2.40;;
10641;SDS011;5369;49.586;8.646;2022-08-30T01:44:05;2.77;;;2.00;;
10641;SDS011;5369;49.586;8.646;2022-08-30T01:46:36;4.00;;;2.30;;
10641;SDS011;5369;49.586;8.646;2022-08-30T01:49:05;4.00;;;2.60;;
10641;SDS011;5369;49.586;8.646;2022-08-30T01:51:32;5.83;;;2.33;;
10641;SDS011;5369;49.586;8.646;2022-08-30T01:53:58;5.17;;;2.80;;
10641;SDS011;5369;49.586;8.646;2022-08-30T01:56:25;4.93;;;2.20;;
10641;SDS011;5369;49.586;8.646;2022-08-30T01:58:51;4.37;;;2.23;;
10641;SDS011;5369;49.586;8.646;2022-08-30T02:01:19;4.70;;;2.40;;
10641;SDS011;5369;49.586;8.646;2022-08-30T02:03:46;4.20;;;2.23;;
10641;SDS011;5369;49.586;8.646;2022-08-30T02:06:14;4.80;;;2.80;;
10641;SDS011;5369;49.586;8.646;2022-08-30T02:08:40;3.57;;;2.40;;
10641;SDS011;5369;49.586;8.646;2022-08-30T02:11:07;4.50;;;2.70;;
10641;SDS011;5369;49.586;8.646;2022-08-30T02:13:34;4.80;;;2.87;;
10641;SDS011;5369;49.586;8.646;2022-08-30T02:16:02;5.37;;;2.77;;
10641;SDS011;5369;49.586;8.646;2022-08-30T02:18:28;3.80;;;2.60;;
10641;SDS011;5369;49.586;8.646;2022-08-30T02:20:54;3.73;;;2.43;;
10641;SDS011;5369;49.586;8.646;2022-08-30T02:23:20;3.97;;;2.60;;
10641;SDS011;5369;49.586;8.646;2022-08-30T02:25:47;4.90;;;2.50;;
10641;SDS011;5369;49.586;8.646;2022-08-30T02:28:13;4.67;;;2.60;;
10641;SDS011;5369;49.586;8.646;2022-08-30T02:30:40;3.50;;;2.53;;
10641;SDS011;5369;49.586;8.646;2022-08-30T02:33:06;3.97;;;2.47;;
10641;SDS011;5369;49.586;8.646;2022-08-30T02:35:33;8.40;;;3.07;;
10641;SDS011;5369;49.586;8.646;2022-08-30T02:37:59;5.77;;;2.90;;
10641;SDS011;5369;49.586;8.646;2022-08-30T02:40:25;3.53;;;2.57;;
10641;SDS011;5369;49.586;8.646;2022-08-30T02:42:51;3.27;;;2.37;;
10641;SDS011;5369;49.586;8.646;2022-08-30T02:45:17;4.23;;;2.90;;
10641;SDS011;5369;49.586;8.646;2022-08-30T02:47:43;5.23;;;2.70;;
10641;SDS011;5369;49.586;8.646;2022-08-30T02:50:10;3.93;;;2.90;;
10641;SDS011;5369;49.586;8.646;2022-08-30T02:52:36;4.27;;;2.80;;
10641;SDS011;5369;49.586;8.646;2022-08-30T02:55:06;3.67;;;2.70;;
10641;SDS011;5369;49.586;8.646;2022-08-30T02:57:33;4.93;;;3.13;;
10641;SDS011;5369;49.586;8.646;2022-08-30T02:59:59;4.20;;;2.43;;
10641;SDS011;5369;49.586;8.646;2022-08-30T03:02:26;6.23;;;2.90;;
10641;SDS011;5369;49.586;8.646;2022-08-30T03:04:54;3.90;;;2.80;;
10641;SDS011;5369;49.586;8.646;2022-08-30T03:07:21;3.23;;;2.60;;
10641;SDS011;5369;49.586;8.646;2022-08-30T03:09:48;5.43;;;2.80;;
10641;SDS011;5369;49.586;8.646;2022-08-30T03:12:14;4.37;;;2.80;;
10641;SDS011;5369;49.586;8.646;2022-08-30T03:14:40;4.60;;;2.50;;
10641;SDS011;5369;49.586;8.646;2022-08-30T03:17:07;5.47;;;2.73;;
10641;SDS011;5369;49.586;8.646;2022-08-30T03:19:34;3.97;;;2.40;;
10641;SDS011;5369;49.586;8.646;2022-08-30T03:22:01;5.43;;;2.77;;
10641;SDS011;5369;49.586;8.646;2022-08-30T03:24:27;4.47;;;2.53;;
10641;SDS011;5369;49.586;8.646;2022-08-30T03:26:53;6.10;;;2.60;;
10641;SDS011;5369;49.586;8.646;2022-08-30T03:29:19;4.67;;;2.50;;
10641;SDS011;5369;49.586;8.646;2022-08-30T03:31:47;4.80;;;2.67;;
10641;SDS011;5369;49.586;8.646;2022-08-30T03:34:13;5.90;;;2.60;;
10641;SDS011;5369;49.586;8.646;2022-08-30T03:36:39;5.47;;;2.73;;
10641;SDS011;5369;49.586;8.646;2022-08-30T03:39:06;4.77;;;2.83;;
10641;SDS011;5369;49.586;8.646;2022-08-30T03:41:32;3.90;;;2.60;;
10641;SDS011;5369;49.586;8.646;2022-08-30T03:43:59;3.87;;;2.63;;
10641;SDS011;5369;49.586;8.646;2022-08-30T03:46:25;3.60;;;2.67;;
10641;SDS011;5369;49.586;8.646;2022-08-30T03:48:52;4.43;;;2.80;;
10641;SDS011;5369;49.586;8.646;2022-08-30T03:51:20;4.70;;;2.70;;
10641;SDS011;5369;49.586;8.646;2022-08-30T03:53:46;5.83;;;2.83;;
10641;SDS011;5369;49.586;8.646;2022-08-30T03:56:13;6.40;;;3.00;;
10641;SDS011;5369;49.586;8.646;2022-08-30T03:58:39;6.10;;;2.90;;
10641;SDS011;5369;49.586;8.646;2022-08-30T04:01:06;5.50;;;2.90;;
10641;SDS011;5369;49.586;8.646;2022-08-30T04:03:32;5.77;;;2.70;;
10641;SDS011;5369;49.586;8.646;2022-08-30T04:05:58;5.07;;;2.60;;
10641;SDS011;5369;49.586;8.646;2022-08-30T04:08:25;3.73;;;2.70;;
10641;SDS011;5369;49.586;8.646;2022-08-30T04:10:51;5.33;;;2.80;;
10641;SDS011;5369;49.586;8.646;2022-08-30T04:13:18;4.33;;;2.90;;
10641;SDS011;5369;49.586;8.646;2022-08-30T04:15:45;4.57;;;3.00;;
10641;SDS011;5369;49.586;8.646;2022-08-30T04:18:11;5.00;;;2.87;;
10641;SDS011;5369;49.586;8.646;2022-08-30T04:20:37;3.30;;;2.70;;
10641;SDS011;5369;49.586;8.646;2022-08-30T04:23:04;3.77;;;2.73;;
10641;SDS011;5369;49.586;8.646;2022-08-30T04:25:34;4.43;;;3.07;;
10641;SDS011;5369;49.586;8.646;2022-08-30T04:28:01;5.57;;;3.27;;
10641;SDS011;5369;49.586;8.646;2022-08-30T04:30:27;4.07;;;2.80;;
10641;SDS011;5369;49.586;8.646;2022-08-30T04:32:53;5.83;;;3.20;;
10641;SDS011;5369;49.586;8.646;2022-08-30T04:35:20;5.03;;;3.20;;
10641;SDS011;5369;49.586;8.646;2022-08-30T04:37:46;3.77;;;2.87;;
10641;SDS011;5369;49.586;8.646;2022-08-30T04:40:12;5.13;;;3.00;;
10641;SDS011;5369;49.586;8.646;2022-08-30T04:42:39;4.73;;;3.00;;
10641;SDS011;5369;49.586;8.646;2022-08-30T04:45:07;5.43;;;3.00;;
10641;SDS011;5369;49.586;8.646;2022-08-30T04:47:34;4.57;;;2.77;;
10641;SDS011;5369;49.586;8.646;2022-08-30T04:50:00;3.20;;;2.50;;
10641;SDS011;5369;49.586;8.646;2022-08-30T04:52:28;5.30;;;3.07;;
10641;SDS011;5369;49.586;8.646;2022-08-30T04:54:54;4.57;;;2.73;;
10641;SDS011;5369;49.586;8.646;2022-08-30T04:57:20;7.67;;;3.23;;
10641;SDS011;5369;49.586;8.646;2022-08-30T04:59:47;4.97;;;3.17;;
10641;SDS011;5369;49.586;8.646;2022-08-30T05:02:13;5.70;;;3.20;;
10641;SDS011;5369;49.586;8.646;2022-08-30T05:04:39;5.03;;;2.90;;
10641;SDS011;5369;49.586;8.646;2022-08-30T05:07:25;4.40;;;3.07;;
10641;SDS011;5369;49.586;8.646;2022-08-30T05:09:51;5.47;;;2.73;;
10641;SDS011;5369;49.586;8.646;2022-08-30T05:12:17;4.37;;;2.90;;
10641;SDS011;5369;49.586;8.646;2022-08-30T05:14:44;4.40;;;2.93;;
10641;SDS011;5369;49.586;8.646;2022-08-30T05:17:10;5.00;;;3.13;;
10641;SDS011;5369;49.586;8.646;2022-08-30T05:19:36;6.77;;;3.10;;
10641;SDS011;5369;49.586;8.646;2022-08-30T05:22:02;6.43;;;3.13;;
10641;SDS011;5369;49.586;8.646;2022-08-30T05:24:29;4.60;;;3.30;;
10641;SDS011;5369;49.586;8.646;2022-08-30T05:26:56;6.27;;;3.00;;
10641;SDS011;5369;49.586;8.646;2022-08-30T05:29:22;6.47;;;3.00;;
10641;SDS011;5369;49.586;8.646;2022-08-30T05:31:49;7.30;;;3.10;;
10641;SDS011;5369;49.586;8.646;2022-08-30T05:34:15;4.17;;;3.10;;
10641;SDS011;5369;49.586;8.646;2022-08-30T05:36:41;8.53;;;3.03;;
10641;SDS011;5369;49.586;8.646;2022-08-30T05:39:08;3.97;;;3.00;;
10641;SDS011;5369;49.586;8.646;2022-08-30T05:41:35;7.97;;;3.07;;
10641;SDS011;5369;49.586;8.646;2022-08-30T05:44:02;3.63;;;3.10;;
10641;SDS011;5369;49.586;8.646;2022-08-30T05:46:29;5.43;;;3.27;;
10641;SDS011;5369;49.586;8.646;2022-08-30T05:49:01;5.87;;;3.50;;
10641;SDS011;5369;49.586;8.646;2022-08-30T05:51:27;6.27;;;3.53;;
10641;SDS011;5369;49.586;8.646;2022-08-30T05:53:54;4.60;;;3.27;;
10641;SDS011;5369;49.586;8.646;2022-08-30T05:56:21;7.23;;;3.20;;
10641;SDS011;5369;49.586;8.646;2022-08-30T05:58:48;9.67;;;3.40;;
10641;SDS011;5369;49.586;8.646;2022-08-30T06:01:21;6.80;;;3.93;;
10641;SDS011;5369;49.586;8.646;2022-08-30T06:03:47;5.53;;;3.10;;
10641;SDS011;5369;49.586;8.646;2022-08-30T06:06:14;8.97;;;3.70;;
10641;SDS011;5369;49.586;8.646;2022-08-30T06:08:40;7.50;;;3.63;;
10641;SDS011;5369;49.586;8.646;2022-08-30T06:11:10;5.80;;;3.40;;
10641;SDS011;5369;49.586;8.646;2022-08-30T06:13:36;4.33;;;3.37;;
10641;SDS011;5369;49.586;8.646;2022-08-30T06:16:02;5.87;;;3.67;;
10641;SDS011;5369;49.586;8.646;2022-08-30T06:18:29;6.03;;;3.60;;
10641;SDS011;5369;49.586;8.646;2022-08-30T06:20:55;6.27;;;3.20;;
10641;SDS011;5369;49.586;8.646;2022-08-30T06:23:22;5.33;;;3.13;;
10641;SDS011;5369;49.586;8.646;2022-08-30T06:25:49;10.63;;;3.40;;
10641;SDS011;5369;49.586;8.646;2022-08-30T06:28:15;4.97;;;3.33;;
10641;SDS011;5369;49.586;8.646;2022-08-30T06:30:42;7.03;;;3.23;;
10641;SDS011;5369;49.586;8.646;2022-08-30T06:33:08;5.70;;;3.40;;
10641;SDS011;5369;49.586;8.646;2022-08-30T06:35:35;4.47;;;3.20;;
10641;SDS011;5369;49.586;8.646;2022-08-30T06:38:01;4.67;;;3.20;;
10641;SDS011;5369;49.586;8.646;2022-08-30T06:40:28;11.70;;;3.47;;
10641;SDS011;5369;49.586;8.646;2022-08-30T06:42:54;5.07;;;3.27;;
10641;SDS011;5369;49.586;8.646;2022-08-30T06:45:21;7.47;;;3.37;;
10641;SDS011;5369;49.586;8.646;2022-08-30T06:47:47;6.73;;;3.50;;
10641;SDS011;5369;49.586;8.646;2022-08-30T06:50:14;8.00;;;4.03;;
10641;SDS011;5369;49.586;8.646;2022-08-30T06:52:41;6.70;;;3.50;;
10641;SDS011;5369;49.586;8.646;2022-08-30T06:55:12;6.67;;;3.80;;
10641;SDS011;5369;49.586;8.646;2022-08-30T06:57:38;6.23;;;3.70;;
10641;SDS011;5369;49.586;8.646;2022-08-30T07:00:06;6.30;;;3.50;;
10641;SDS011;5369;49.586;8.646;2022-08-30T07:02:35;6.20;;;3.47;;
10641;SDS011;5369;49.586;8.646;2022-08-30T07:05:01;4.73;;;3.10;;
10641;SDS011;5369;49.586;8.646;2022-08-30T07:07:28;5.50;;;3.40;;
10641;SDS011;5369;49.586;8.646;2022-08-30T07:09:54;4.63;;;3.17;;
10641;SDS011;5369;49.586;8.646;2022-08-30T07:12:21;7.40;;;3.60;;
10641;SDS011;5369;49.586;8.646;2022-08-30T07:14:48;6.13;;;3.40;;
10641;SDS011;5369;49.586;8.646;2022-08-30T07:17:15;5.87;;;3.07;;
10641;SDS011;5369;49.586;8.646;2022-08-30T07:19:59;5.80;;;3.20;;
10641;SDS011;5369;49.586;8.646;2022-08-30T07:22:26;7.37;;;3.17;;
10641;SDS011;5369;49.586;8.646;2022-08-30T07:24:53;6.47;;;3.20;;
10641;SDS011;5369;49.586;8.646;2022-08-30T07:27:19;4.40;;;3.20;;
10641;SDS011;5369;49.586;8.646;2022-08-30T07:29:47;5.93;;;3.17;;
10641;SDS011;5369;49.586;8.646;2022-08-30T07:32:13;4.10;;;3.20;;
10641;SDS011;5369;49.586;8.646;2022-08-30T07:34:39;5.67;;;2.90;;
10641;SDS011;5369;49.586;8.646;2022-08-30T07:37:05;6.53;;;3.10;;
10641;SDS011;5369;49.586;8.646;2022-08-30T07:39:32;4.73;;;3.30;;
10641;SDS011;5369;49.586;8.646;2022-08-30T07:41:58;5.80;;;3.20;;
10641;SDS011;5369;49.586;8.646;2022-08-30T07:44:24;6.70;;;3.70;;
10641;SDS011;5369;49.586;8.646;2022-08-30T07:46:50;6.17;;;3.20;;
10641;SDS011;5369;49.586;8.646;2022-08-30T07:49:17;7.47;;;3.47;;
10641;SDS011;5369;49.586;8.646;2022-08-30T07:51:44;8.27;;;3.40;;
10641;SDS011;5369;49.586;8.646;2022-08-30T07:54:10;5.20;;;3.40;;
10641;SDS011;5369;49.586;8.646;2022-08-30T07:56:37;9.20;;;3.57;;
10641;SDS011;5369;49.586;8.646;2022-08-30T07:59:03;7.60;;;3.23;;
10641;SDS011;5369;49.586;8.646;2022-08-30T08:01:29;6.13;;;3.07;;
10641;SDS011;5369;49.586;8.646;2022-08-30T08:03:55;5.43;;;2.83;;
10641;SDS011;5369;49.586;8.646;2022-08-30T08:06:22;5.10;;;3.00;;
10641;SDS011;5369;49.586;8.646;2022-08-30T08:08:49;5.93;;;3.23;;
10641;SDS011;5369;49.586;8.646;2022-08-30T08:11:17;6.73;;;3.23;;
10641;SDS011;5369;49.586;8.646;2022-08-30T08:13:44;6.00;;;2.73;;
10641;SDS011;5369;49.586;8.646;2022-08-30T08:16:10;6.17;;;3.00;;
10641;SDS011;5369;49.586;8.646;2022-08-30T08:18:37;4.20;;;2.70;;
10641;SDS011;5369;49.586;8.646;2022-08-30T08:21:03;4.77;;;2.50;;
10641;SDS011;5369;49.586;8.646;2022-08-30T08:23:30;4.90;;;2.90;;
10641;SDS011;5369;49.586;8.646;2022-08-30T08:25:56;7.70;;;2.97;;
10641;SDS011;5369;49.586;8.646;2022-08-30T08:28:23;6.23;;;2.80;;
10641;SDS011;5369;49.586;8.646;2022-08-30T08:30:49;5.33;;;2.90;;
10641;SDS011;5369;49.586;8.646;2022-08-30T08:33:15;4.93;;;3.00;;
10641;SDS011;5369;49.586;8.646;2022-08-30T08:35:42;5.33;;;2.80;;
10641;SDS011;5369;49.586;8.646;2022-08-30T08:38:08;6.00;;;3.10;;
10641;SDS011;5369;49.586;8.646;2022-08-30T08:40:37;4.93;;;3.00;;
10641;SDS011;5369;49.586;8.646;2022-08-30T08:43:09;6.83;;;3.00;;
10641;SDS011;5369;49.586;8.646;2022-08-30T08:45:47;6.70;;;2.80;;
10641;SDS011;5369;49.586;8.646;2022-08-30T08:48:30;6.50;;;3.10;;
10641;SDS011;5369;49.586;8.646;2022-08-30T08:50:57;5.93;;;2.70;;
10641;SDS011;5369;49.586;8.646;2022-08-30T08:53:44;5.70;;;2.90;;
10641;SDS011;5369;49.586;8.646;2022-08-30T08:56:13;6.00;;;2.87;;
10641;SDS011;5369;49.586;8.646;2022-08-30T09:01:10;4.33;;;2.80;;
10641;SDS011;5369;49.586;8.646;2022-08-30T09:03:36;5.90;;;3.10;;
10641;SDS011;5369;49.586;8.646;2022-08-30T09:06:06;6.43;;;2.60;;
10641;SDS011;5369;49.586;8.646;2022-08-30T09:08:36;6.83;;;2.90;;
10641;SDS011;5369;49.586;8.646;2022-08-30T09:11:04;5.20;;;2.87;;
10641;SDS011;5369;49.586;8.646;2022-08-30T09:13:31;7.10;;;2.93;;
10641;SDS011;5369;49.586;8.646;2022-08-30T09:15:57;7.03;;;2.80;;
10641;SDS011;5369;49.586;8.646;2022-08-30T09:18:39;4.23;;;2.70;;
10641;SDS011;5369;49.586;8.646;2022-08-30T09:21:06;3.90;;;2.60;;
10641;SDS011;5369;49.586;8.646;2022-08-30T09:23:33;5.33;;;2.80;;
10641;SDS011;5369;49.586;8.646;2022-08-30T09:26:00;6.70;;;2.90;;
10641;SDS011;5369;49.586;8.646;2022-08-30T09:28:28;4.43;;;2.90;;
10641;SDS011;5369;49.586;8.646;2022-08-30T09:31:04;7.53;;;2.90;;
10641;SDS011;5369;49.586;8.646;2022-08-30T09:33:31;5.30;;;3.10;;
10641;SDS011;5369;49.586;8.646;2022-08-30T09:38:58;3.43;;;2.43;;
10641;SDS011;5369;49.586;8.646;2022-08-30T09:41:29;4.00;;;2.90;;
10641;SDS011;5369;49.586;8.646;2022-08-30T09:46:51;3.93;;;2.93;;
10641;SDS011;5369;49.586;8.646;2022-08-30T09:49:28;4.33;;;2.73;;
10641;SDS011;5369;49.586;8.646;2022-08-30T09:52:02;4.47;;;2.80;;
10641;SDS011;5369;49.586;8.646;2022-08-30T09:54:37;4.00;;;2.90;;
10641;SDS011;5369;49.586;8.646;2022-08-30T09:57:19;6.67;;;2.90;;
10641;SDS011;5369;49.586;8.646;2022-08-30T10:00:00;5.00;;;2.60;;
10641;SDS011;5369;49.586;8.646;2022-08-30T10:05:04;3.37;;;2.77;;
10641;SDS011;5369;49.586;8.646;2022-08-30T10:15:20;4.63;;;3.00;;
10641;SDS011;5369;49.586;8.646;2022-08-30T10:18:02;6.33;;;2.83;;
10641;SDS011;5369;49.586;8.646;2022-08-30T10:23:14;3.03;;;2.63;;
10641;SDS011;5369;49.586;8.646;2022-08-30T10:25:47;5.60;;;3.00;;
10641;SDS011;5369;49.586;8.646;2022-08-30T10:31:30;4.03;;;2.90;;
10641;SDS011;5369;49.586;8.646;2022-08-30T10:34:01;3.63;;;2.80;;
10641;SDS011;5369;49.586;8.646;2022-08-30T10:36:32;3.67;;;2.77;;
10641;SDS011;5369;49.586;8.646;2022-08-30T10:39:00;4.13;;;2.87;;
10641;SDS011;5369;49.586;8.646;2022-08-30T10:41:32;3.77;;;2.90;;
10641;SDS011;5369;49.586;8.646;2022-08-30T10:49:01;3.20;;;2.90;;
10641;SDS011;5369;49.586;8.646;2022-08-30T10:51:40;5.00;;;2.80;;
10641;SDS011;5369;49.586;8.646;2022-08-30T10:54:17;4.10;;;2.90;;
10641;SDS011;5369;49.586;8.646;2022-08-30T10:56:47;4.37;;;3.00;;
10641;SDS011;5369;49.586;8.646;2022-08-30T10:59:15;4.63;;;2.93;;
10641;SDS011;5369;49.586;8.646;2022-08-30T11:01:59;4.27;;;3.00;;
10641;SDS011;5369;49.586;8.646;2022-08-30T11:07:20;3.70;;;3.30;;
10641;SDS011;5369;49.586;8.646;2022-08-30T11:10:07;3.63;;;2.90;;
10641;SDS011;5369;49.586;8.646;2022-08-30T11:12:50;5.60;;;3.00;;
10641;SDS011;5369;49.586;8.646;2022-08-30T11:15:19;4.60;;;3.07;;
10641;SDS011;5369;49.586;8.646;2022-08-30T11:20:23;5.10;;;2.93;;
10641;SDS011;5369;49.586;8.646;2022-08-30T11:23:12;5.63;;;3.27;;
10641;SDS011;5369;49.586;8.646;2022-08-30T11:25:53;3.80;;;2.60;;
10641;SDS011;5369;49.586;8.646;2022-08-30T11:31:07;6.07;;;3.10;;
10641;SDS011;5369;49.586;8.646;2022-08-30T11:33:41;3.17;;;2.60;;
10641;SDS011;5369;49.586;8.646;2022-08-30T11:36:08;3.17;;;2.87;;
10641;SDS011;5369;49.586;8.646;2022-08-30T11:41:09;3.10;;;2.80;;
10641;SDS011;5369;49.586;8.646;2022-08-30T11:56:57;3.37;;;3.07;;
10641;SDS011;5369;49.586;8.646;2022-08-30T12:01:59;4.27;;;3.00;;
10641;SDS011;5369;49.586;8.646;2022-08-30T12:04:26;3.13;;;2.80;;
10641;SDS011;5369;49.586;8.646;2022-08-30T12:06:54;4.80;;;3.03;;
10641;SDS011;5369;49.586;8.646;2022-08-30T12:17:12;4.27;;;3.13;;
10641;SDS011;5369;49.586;8.646;2022-08-30T12:19:58;3.60;;;2.90;;
10641;SDS011;5369;49.586;8.646;2022-08-30T12:22:25;4.40;;;2.80;;
10641;SDS011;5369;49.586;8.646;2022-08-30T12:24:55;3.83;;;3.00;;
10641;SDS011;5369;49.586;8.646;2022-08-30T12:30:07;3.73;;;3.10;;
10641;SDS011;5369;49.586;8.646;2022-08-30T12:32:36;3.13;;;2.83;;
10641;SDS011;5369;49.586;8.646;2022-08-30T12:35:09;3.93;;;2.70;;
10641;SDS011;5369;49.586;8.646;2022-08-30T12:37:42;5.00;;;2.90;;
10641;SDS011;5369;49.586;8.646;2022-08-30T12:40:10;3.07;;;2.73;;
10641;SDS011;5369;49.586;8.646;2022-08-30T12:42:38;3.53;;;3.23;;
10641;SDS011;5369;49.586;8.646;2022-08-30T12:45:16;3.37;;;2.77;;
10641;SDS011;5369;49.586;8.646;2022-08-30T12:50:20;3.37;;;2.90;;
10641;SDS011;5369;49.586;8.646;2022-08-30T12:52:54;5.03;;;2.93;;
10641;SDS011;5369;49.586;8.646;2022-08-30T12:55:22;4.33;;;2.60;;
10641;SDS011;5369;49.586;8.646;2022-08-30T12:58:31;3.43;;;2.90;;
10641;SDS011;5369;49.586;8.646;2022-08-30T13:00:43;3.73;;;2.80;;
10641;SDS011;5369;49.586;8.646;2022-08-30T13:05:55;4.13;;;2.80;;
10641;SDS011;5369;49.586;8.646;2022-08-30T13:08:23;6.53;;;2.97;;
10641;SDS011;5369;49.586;8.646;2022-08-30T13:10:52;3.50;;;2.80;;
10641;SDS011;5369;49.586;8.646;2022-08-30T13:13:27;7.37;;;3.13;;
10641;SDS011;5369;49.586;8.646;2022-08-30T13:15:53;4.17;;;3.27;;
10641;SDS011;5369;49.586;8.646;2022-08-30T13:18:24;3.70;;;3.20;;
10641;SDS011;5369;49.586;8.646;2022-08-30T13:21:07;4.53;;;3.20;;
10641;SDS011;5369;49.586;8.646;2022-08-30T13:23:34;5.03;;;2.70;;
10641;SDS011;5369;49.586;8.646;2022-08-30T13:26:00;3.27;;;2.97;;
10641;SDS011;5369;49.586;8.646;2022-08-30T13:28:26;3.50;;;2.70;;
10641;SDS011;5369;49.586;8.646;2022-08-30T13:30:53;2.90;;;2.70;;
10641;SDS011;5369;49.586;8.646;2022-08-30T13:33:19;3.70;;;3.20;;
10641;SDS011;5369;49.586;8.646;2022-08-30T13:35:45;3.53;;;2.97;;
10641;SDS011;5369;49.586;8.646;2022-08-30T13:38:11;3.47;;;2.97;;
10641;SDS011;5369;49.586;8.646;2022-08-30T13:40:37;4.23;;;3.10;;
10641;SDS011;5369;49.586;8.646;2022-08-30T13:43:04;3.50;;;2.90;;
10641;SDS011;5369;49.586;8.646;2022-08-30T13:45:30;3.20;;;2.90;;
10641;SDS011;5369;49.586;8.646;2022-08-30T13:47:56;3.30;;;3.00;;
10641;SDS011;5369;49.586;8.646;2022-08-30T13:50:22;3.00;;;2.80;;
10641;SDS011;5369;49.586;8.646;2022-08-30T13:52:48;3.23;;;2.90;;
10641;SDS011;5369;49.586;8.646;2022-08-30T13:55:14;3.00;;;2.70;;
10641;SDS011;5369;49.586;8.646;2022-08-30T13:57:40;3.10;;;2.80;;
10641;SDS011;5369;49.586;8.646;2022-08-30T14:00:07;3.37;;;3.07;;
10641;SDS011;5369;49.586;8.646;2022-08-30T14:02:37;3.10;;;2.80;;
10641;SDS011;5369;49.586;8.646;2022-08-30T14:05:03;4.20;;;2.93;;
10641;SDS011;5369;49.586;8.646;2022-08-30T14:07:30;4.53;;;2.60;;
10641;SDS011;5369;49.586;8.646;2022-08-30T14:09:56;3.93;;;2.80;;
10641;SDS011;5369;49.586;8.646;2022-08-30T14:12:24;3.23;;;2.57;;
10641;SDS011;5369;49.586;8.646;2022-08-30T14:14:50;2.90;;;2.60;;
10641;SDS011;5369;49.586;8.646;2022-08-30T14:17:16;4.50;;;2.97;;
10641;SDS011;5369;49.586;8.646;2022-08-30T14:19:42;3.47;;;2.93;;
10641;SDS011;5369;49.586;8.646;2022-08-30T14:22:08;3.10;;;2.80;;
10641;SDS011;5369;49.586;8.646;2022-08-30T14:24:35;4.67;;;3.00;;
10641;SDS011;5369;49.586;8.646;2022-08-30T14:27:01;3.70;;;3.13;;
10641;SDS011;5369;49.586;8.646;2022-08-30T14:29:27;3.53;;;3.13;;
10641;SDS011;5369;49.586;8.646;2022-08-30T14:31:55;4.13;;;3.00;;
10641;SDS011;5369;49.586;8.646;2022-08-30T14:34:22;3.60;;;3.20;;
10641;SDS011;5369;49.586;8.646;2022-08-30T14:36:49;4.20;;;3.20;;
10641;SDS011;5369;49.586;8.646;2022-08-30T14:39:16;3.63;;;3.33;;
10641;SDS011;5369;49.586;8.646;2022-08-30T14:41:44;4.60;;;3.40;;
10641;SDS011;5369;49.586;8.646;2022-08-30T14:44:14;3.40;;;2.93;;
10641;SDS011;5369;49.586;8.646;2022-08-30T14:46:41;3.20;;;2.90;;
10641;SDS011;5369;49.586;8.646;2022-08-30T14:49:07;4.13;;;3.30;;
10641;SDS011;5369;49.586;8.646;2022-08-30T14:51:34;4.67;;;3.70;;
10641;SDS011;5369;49.586;8.646;2022-08-30T14:54:00;3.23;;;3.03;;
10641;SDS011;5369;49.586;8.646;2022-08-30T14:56:26;3.37;;;3.03;;
10641;SDS011;5369;49.586;8.646;2022-08-30T14:58:52;3.47;;;2.50;;
10641;SDS011;5369;49.586;8.646;2022-08-30T15:01:24;2.87;;;2.67;;
10641;SDS011;5369;49.586;8.646;2022-08-30T15:03:50;3.77;;;2.60;;
10641;SDS011;5369;49.586;8.646;2022-08-30T15:06:17;3.23;;;2.93;;
10641;SDS011;5369;49.586;8.646;2022-08-30T15:08:43;5.03;;;2.80;;
10641;SDS011;5369;49.586;8.646;2022-08-30T15:11:10;3.73;;;2.90;;
10641;SDS011;5369;49.586;8.646;2022-08-30T15:13:37;2.80;;;2.60;;
10641;SDS011;5369;49.586;8.646;2022-08-30T15:16:10;4.30;;;2.90;;
10641;SDS011;5369;49.586;8.646;2022-08-30T15:18:37;3.07;;;2.70;;
10641;SDS011;5369;49.586;8.646;2022-08-30T15:21:03;3.40;;;2.80;;
10641;SDS011;5369;49.586;8.646;2022-08-30T15:23:29;4.37;;;3.00;;
10641;SDS011;5369;49.586;8.646;2022-08-30T15:25:55;3.63;;;3.00;;
10641;SDS011;5369;49.586;8.646;2022-08-30T15:28:21;3.93;;;3.07;;
10641;SDS011;5369;49.586;8.646;2022-08-30T15:30:47;3.43;;;2.80;;
10641;SDS011;5369;49.586;8.646;2022-08-30T15:33:14;4.60;;;2.90;;
10641;SDS011;5369;49.586;8.646;2022-08-30T15:35:41;3.27;;;2.83;;
10641;SDS011;5369;49.586;8.646;2022-08-30T15:38:07;3.40;;;3.10;;
10641;SDS011;5369;49.586;8.646;2022-08-30T15:40:34;4.87;;;3.00;;
10641;SDS011;5369;49.586;8.646;2022-08-30T15:43:02;4.37;;;2.90;;
10641;SDS011;5369;49.586;8.646;2022-08-30T15:45:28;3.20;;;2.90;;
10641;SDS011;5369;49.586;8.646;2022-08-30T15:47:54;3.10;;;2.80;;
10641;SDS011;5369;49.586;8.646;2022-08-30T15:50:24;5.00;;;2.97;;
10641;SDS011;5369;49.586;8.646;2022-08-30T15:52:50;3.77;;;2.83;;
10641;SDS011;5369;49.586;8.646;2022-08-30T15:55:16;3.20;;;2.90;;
10641;SDS011;5369;49.586;8.646;2022-08-30T15:57:43;3.03;;;2.73;;
10641;SDS011;5369;49.586;8.646;2022-08-30T16:00:10;3.37;;;3.07;;
10641;SDS011;5369;49.586;8.646;2022-08-30T16:02:36;3.00;;;2.80;;
10641;SDS011;5369;49.586;8.646;2022-08-30T16:05:02;3.10;;;2.67;;
10641;SDS011;5369;49.586;8.646;2022-08-30T16:07:29;4.07;;;3.10;;
10641;SDS011;5369;49.586;8.646;2022-08-30T16:09:55;3.23;;;2.93;;
10641;SDS011;5369;49.586;8.646;2022-08-30T16:12:21;3.10;;;2.80;;
10641;SDS011;5369;49.586;8.646;2022-08-30T16:14:47;2.90;;;2.63;;
10641;SDS011;5369;49.586;8.646;2022-08-30T16:17:14;5.47;;;3.20;;